sensor_id;sensor_type;location;lat;lon;timestamp;pressure;altitude;pressure_sealevel;temperature;humidity
55171;BME280;41060;47.510;8.680;2023-05-25T00:00:15;97202.13;;;16.70;46.54
55171;BME280;41060;47.510;8.680;2023-05-25T00:02:43;97207.44;;;16.62;46.70
55171;BME280;41060;47.510;8.680;2023-05-25T00:05:11;97206.44;;;16.63;46.68
55171;BME280;41060;47.510;8.680;2023-05-25T00:07:38;97203.97;;;16.44;47.31
55171;BME280;41060;47.510;8.680;2023-05-25T00:10:07;97195.28;;;16.42;47.56
55171;BME280;41060;47.510;8.680;2023-05-25T00:12:33;97202.38;;;16.51;47.03
55171;BME280;41060;47.510;8.680;2023-05-25T00:15:02;97198.50;;;16.45;47.48
55171;BME280;41060;47.510;8.680;2023-05-25T00:17:31;97167.34;;;16.36;46.97
55171;BME280;41060;47.510;8.680;2023-05-25T00:19:58;97200.19;;;16.55;47.24
55171;BME280;41060;47.510;8.680;2023-05-25T00:22:36;97195.59;;;16.39;47.24
55171;BME280;41060;47.510;8.680;2023-05-25T00:25:03;97195.06;;;16.35;47.30
55171;BME280;41060;47.510;8.680;2023-05-25T00:27:30;97199.34;;;16.28;47.48
55171;BME280;41060;47.510;8.680;2023-05-25T00:29:58;97190.09;;;16.40;47.25
55171;BME280;41060;47.510;8.680;2023-05-25T00:32:28;97193.34;;;16.52;46.59
55171;BME280;41060;47.510;8.680;2023-05-25T00:34:54;97194.28;;;16.43;46.88
55171;BME280;41060;47.510;8.680;2023-05-25T00:37:23;97192.81;;;16.48;46.71
55171;BME280;41060;47.510;8.680;2023-05-25T00:39:50;97189.94;;;16.42;47.33
55171;BME280;41060;47.510;8.680;2023-05-25T00:42:17;97179.34;;;16.32;47.53
55171;BME280;41060;47.510;8.680;2023-05-25T00:44:46;97182.41;;;16.37;47.05
55171;BME280;41060;47.510;8.680;2023-05-25T00:47:14;97163.94;;;16.26;47.14
55171;BME280;41060;47.510;8.680;2023-05-25T00:49:42;97182.91;;;16.41;47.18
55171;BME280;41060;47.510;8.680;2023-05-25T00:52:11;97179.78;;;16.45;46.79
55171;BME280;41060;47.510;8.680;2023-05-25T00:54:37;97176.63;;;16.50;46.64
55171;BME280;41060;47.510;8.680;2023-05-25T00:57:06;97174.69;;;16.34;46.24
55171;BME280;41060;47.510;8.680;2023-05-25T00:59:37;97175.47;;;16.27;45.58
55171;BME280;41060;47.510;8.680;2023-05-25T01:02:09;97173.19;;;16.32;45.24
55171;BME280;41060;47.510;8.680;2023-05-25T01:04:39;97180.16;;;16.33;45.44
55171;BME280;41060;47.510;8.680;2023-05-25T01:07:16;97178.69;;;16.30;43.84
55171;BME280;41060;47.510;8.680;2023-05-25T01:09:44;97176.84;;;16.31;43.31
55171;BME280;41060;47.510;8.680;2023-05-25T01:12:13;97178.41;;;16.16;42.87
55171;BME280;41060;47.510;8.680;2023-05-25T01:14:40;97182.84;;;16.07;42.72
55171;BME280;41060;47.510;8.680;2023-05-25T01:17:08;97174.56;;;16.18;42.57
55171;BME280;41060;47.510;8.680;2023-05-25T01:19:35;97175.03;;;16.14;43.13
55171;BME280;41060;47.510;8.680;2023-05-25T01:22:11;97174.41;;;16.02;42.70
55171;BME280;41060;47.510;8.680;2023-05-25T01:24:45;97174.13;;;15.87;43.27
55171;BME280;41060;47.510;8.680;2023-05-25T01:27:16;97174.13;;;15.69;44.06
55171;BME280;41060;47.510;8.680;2023-05-25T01:29:47;97170.00;;;15.75;44.01
55171;BME280;41060;47.510;8.680;2023-05-25T01:32:16;97172.22;;;15.80;44.01
55171;BME280;41060;47.510;8.680;2023-05-25T01:34:45;97171.84;;;15.57;43.43
55171;BME280;41060;47.510;8.680;2023-05-25T01:37:17;97180.78;;;15.38;43.44
55171;BME280;41060;47.510;8.680;2023-05-25T01:39:44;97176.63;;;15.53;43.26
55171;BME280;41060;47.510;8.680;2023-05-25T01:42:11;97174.19;;;15.60;44.92
55171;BME280;41060;47.510;8.680;2023-05-25T01:44:38;97185.53;;;15.44;44.65
55171;BME280;41060;47.510;8.680;2023-05-25T01:47:09;97181.78;;;15.37;44.61
55171;BME280;41060;47.510;8.680;2023-05-25T01:49:45;97180.38;;;15.43;44.42
55171;BME280;41060;47.510;8.680;2023-05-25T01:52:21;97177.09;;;15.49;44.22
55171;BME280;41060;47.510;8.680;2023-05-25T01:54:52;97160.28;;;15.21;44.74
55171;BME280;41060;47.510;8.680;2023-05-25T01:57:21;97178.13;;;15.38;44.38
55171;BME280;41060;47.510;8.680;2023-05-25T01:59:48;97184.31;;;15.39;44.80
55171;BME280;41060;47.510;8.680;2023-05-25T02:02:20;97184.53;;;15.27;44.83
55171;BME280;41060;47.510;8.680;2023-05-25T02:04:47;97185.53;;;15.44;45.06
55171;BME280;41060;47.510;8.680;2023-05-25T02:07:14;97191.41;;;15.48;45.91
55171;BME280;41060;47.510;8.680;2023-05-25T02:09:43;97187.91;;;15.47;45.14
55171;BME280;41060;47.510;8.680;2023-05-25T02:12:09;97183.19;;;15.59;45.98
55171;BME280;41060;47.510;8.680;2023-05-25T02:14:36;97184.47;;;15.55;45.57
55171;BME280;41060;47.510;8.680;2023-05-25T02:17:03;97184.41;;;15.47;46.09
55171;BME280;41060;47.510;8.680;2023-05-25T02:19:30;97180.97;;;15.54;46.04
55171;BME280;41060;47.510;8.680;2023-05-25T02:21:56;97176.63;;;15.53;45.68
55171;BME280;41060;47.510;8.680;2023-05-25T02:24:24;97171.19;;;15.45;45.84
55171;BME280;41060;47.510;8.680;2023-05-25T02:26:52;97174.69;;;15.28;45.40
55171;BME280;41060;47.510;8.680;2023-05-25T02:29:19;97177.88;;;15.31;45.41
55171;BME280;41060;47.510;8.680;2023-05-25T02:31:46;97172.03;;;15.28;46.29
55171;BME280;41060;47.510;8.680;2023-05-25T02:34:13;97167.28;;;15.22;46.38
55171;BME280;41060;47.510;8.680;2023-05-25T02:36:39;97170.25;;;15.19;45.87
55171;BME280;41060;47.510;8.680;2023-05-25T02:39:09;97166.00;;;15.26;46.20
55171;BME280;41060;47.510;8.680;2023-05-25T02:41:38;97166.59;;;15.20;46.07
55171;BME280;41060;47.510;8.680;2023-05-25T02:44:06;97171.19;;;15.27;46.22
55171;BME280;41060;47.510;8.680;2023-05-25T02:46:33;97137.44;;;15.09;46.23
55171;BME280;41060;47.510;8.680;2023-05-25T02:49:00;97171.84;;;15.29;45.83
55171;BME280;41060;47.510;8.680;2023-05-25T02:51:27;97174.00;;;15.26;45.34
55171;BME280;41060;47.510;8.680;2023-05-25T02:53:54;97176.81;;;14.97;46.14
55171;BME280;41060;47.510;8.680;2023-05-25T02:56:20;97169.19;;;15.12;46.72
55171;BME280;41060;47.510;8.680;2023-05-25T02:58:47;97169.56;;;15.17;46.64
55171;BME280;41060;47.510;8.680;2023-05-25T03:01:16;97158.03;;;15.16;46.12
55171;BME280;41060;47.510;8.680;2023-05-25T03:03:43;97162.41;;;15.17;46.36
55171;BME280;41060;47.510;8.680;2023-05-25T03:06:11;97167.00;;;15.25;46.47
55171;BME280;41060;47.510;8.680;2023-05-25T03:08:38;97160.81;;;15.24;46.59
55171;BME280;41060;47.510;8.680;2023-05-25T03:11:05;97159.13;;;15.23;46.58
55171;BME280;41060;47.510;8.680;2023-05-25T03:13:35;97158.94;;;15.34;46.83
55171;BME280;41060;47.510;8.680;2023-05-25T03:16:02;97159.44;;;15.38;46.68
55171;BME280;41060;47.510;8.680;2023-05-25T03:18:30;97168.28;;;15.39;46.11
55171;BME280;41060;47.510;8.680;2023-05-25T03:20:56;97178.53;;;15.43;45.69
55171;BME280;41060;47.510;8.680;2023-05-25T03:23:23;97167.41;;;15.48;45.81
55171;BME280;41060;47.510;8.680;2023-05-25T03:25:50;97171.84;;;15.29;46.65
55171;BME280;41060;47.510;8.680;2023-05-25T03:28:16;97140.91;;;15.19;46.77
55171;BME280;41060;47.510;8.680;2023-05-25T03:30:43;97165.88;;;15.45;46.83
55171;BME280;41060;47.510;8.680;2023-05-25T03:33:10;97173.03;;;15.45;45.61
55171;BME280;41060;47.510;8.680;2023-05-25T03:35:39;97165.19;;;15.43;46.43
55171;BME280;41060;47.510;8.680;2023-05-25T03:38:06;97177.38;;;15.46;46.04
55171;BME280;41060;47.510;8.680;2023-05-25T03:40:33;97177.84;;;15.41;46.70
55171;BME280;41060;47.510;8.680;2023-05-25T03:42:59;97176.91;;;15.32;46.90
55171;BME280;41060;47.510;8.680;2023-05-25T03:45:26;97175.78;;;15.35;46.41
55171;BME280;41060;47.510;8.680;2023-05-25T03:47:53;97180.69;;;15.30;47.73
55171;BME280;41060;47.510;8.680;2023-05-25T03:50:19;97188.19;;;15.26;47.44
55171;BME280;41060;47.510;8.680;2023-05-25T03:52:47;97183.50;;;15.28;47.21
55171;BME280;41060;47.510;8.680;2023-05-25T03:55:14;97185.44;;;15.36;46.86
55171;BME280;41060;47.510;8.680;2023-05-25T03:57:41;97185.28;;;15.38;47.30
55171;BME280;41060;47.510;8.680;2023-05-25T04:00:09;97183.69;;;15.45;47.08
55171;BME280;41060;47.510;8.680;2023-05-25T04:02:36;97189.28;;;15.51;46.60
55171;BME280;41060;47.510;8.680;2023-05-25T04:05:03;97183.50;;;15.28;48.37
55171;BME280;41060;47.510;8.680;2023-05-25T04:07:30;97185.91;;;15.31;48.53
55171;BME280;41060;47.510;8.680;2023-05-25T04:09:58;97197.03;;;15.45;46.91
55171;BME280;41060;47.510;8.680;2023-05-25T04:12:25;97201.19;;;15.57;47.24
55171;BME280;41060;47.510;8.680;2023-05-25T04:14:52;97190.00;;;15.71;46.63
55171;BME280;41060;47.510;8.680;2023-05-25T04:17:19;97185.41;;;15.81;49.19
55171;BME280;41060;47.510;8.680;2023-05-25T04:19:48;97194.47;;;15.88;46.57
55171;BME280;41060;47.510;8.680;2023-05-25T04:22:16;97182.34;;;15.58;46.60
55171;BME280;41060;47.510;8.680;2023-05-25T04:24:43;97193.59;;;15.34;47.03
55171;BME280;41060;47.510;8.680;2023-05-25T04:27:11;97197.34;;;15.42;46.31
55171;BME280;41060;47.510;8.680;2023-05-25T04:29:39;97201.72;;;15.60;46.03
55171;BME280;41060;47.510;8.680;2023-05-25T04:32:06;97195.19;;;15.72;46.18
55171;BME280;41060;47.510;8.680;2023-05-25T04:34:36;97192.34;;;15.74;46.34
55171;BME280;41060;47.510;8.680;2023-05-25T04:37:04;97188.50;;;15.59;47.42
55171;BME280;41060;47.510;8.680;2023-05-25T04:39:33;97189.03;;;15.45;47.57
55171;BME280;41060;47.510;8.680;2023-05-25T04:41:59;97191.50;;;15.56;46.73
55171;BME280;41060;47.510;8.680;2023-05-25T04:44:30;97186.41;;;15.62;46.17
55171;BME280;41060;47.510;8.680;2023-05-25T04:46:57;97183.38;;;15.30;47.42
55171;BME280;41060;47.510;8.680;2023-05-25T04:49:27;97185.59;;;15.34;47.31
55171;BME280;41060;47.510;8.680;2023-05-25T04:51:55;97182.84;;;15.44;46.91
55171;BME280;41060;47.510;8.680;2023-05-25T04:54:24;97181.59;;;15.48;48.13
55171;BME280;41060;47.510;8.680;2023-05-25T04:56:51;97191.03;;;15.43;47.98
55171;BME280;41060;47.510;8.680;2023-05-25T04:59:18;97194.13;;;15.38;48.17
55171;BME280;41060;47.510;8.680;2023-05-25T05:01:45;97196.09;;;15.18;48.88
55171;BME280;41060;47.510;8.680;2023-05-25T05:04:12;97204.78;;;15.11;48.87
55171;BME280;41060;47.510;8.680;2023-05-25T05:06:41;97208.06;;;15.05;48.90
55171;BME280;41060;47.510;8.680;2023-05-25T05:09:07;97207.88;;;15.16;48.65
55171;BME280;41060;47.510;8.680;2023-05-25T05:11:34;97207.00;;;15.25;48.56
55171;BME280;41060;47.510;8.680;2023-05-25T05:14:01;97207.88;;;15.43;47.44
55171;BME280;41060;47.510;8.680;2023-05-25T05:16:27;97204.00;;;15.55;46.93
55171;BME280;41060;47.510;8.680;2023-05-25T05:18:59;97206.44;;;15.66;46.42
55171;BME280;41060;47.510;8.680;2023-05-25T05:21:27;97222.47;;;15.66;45.54
55171;BME280;41060;47.510;8.680;2023-05-25T05:23:53;97217.28;;;15.65;45.75
55171;BME280;41060;47.510;8.680;2023-05-25T05:26:20;97219.66;;;15.68;45.39
55171;BME280;41060;47.510;8.680;2023-05-25T05:28:47;97227.22;;;15.72;45.25
55171;BME280;41060;47.510;8.680;2023-05-25T05:31:16;97225.59;;;15.62;44.91
55171;BME280;41060;47.510;8.680;2023-05-25T05:33:43;97236.13;;;15.63;45.44
55171;BME280;41060;47.510;8.680;2023-05-25T05:36:12;97230.56;;;15.74;46.00
55171;BME280;41060;47.510;8.680;2023-05-25T05:38:38;97229.28;;;15.79;45.72
55171;BME280;41060;47.510;8.680;2023-05-25T05:41:05;97230.69;;;15.73;46.35
55171;BME280;41060;47.510;8.680;2023-05-25T05:43:38;97229.41;;;15.77;46.32
55171;BME280;41060;47.510;8.680;2023-05-25T05:46:06;97223.47;;;15.83;45.67
55171;BME280;41060;47.510;8.680;2023-05-25T05:48:33;97229.88;;;15.90;45.64
55171;BME280;41060;47.510;8.680;2023-05-25T05:51:00;97237.97;;;15.98;45.36
55171;BME280;41060;47.510;8.680;2023-05-25T05:53:28;97202.72;;;15.77;44.69
55171;BME280;41060;47.510;8.680;2023-05-25T05:55:55;97236.19;;;15.89;44.97
55171;BME280;41060;47.510;8.680;2023-05-25T05:58:26;97236.44;;;15.96;45.22
55171;BME280;41060;47.510;8.680;2023-05-25T06:00:58;97227.22;;;15.90;45.13
55171;BME280;41060;47.510;8.680;2023-05-25T06:03:26;97241.63;;;15.97;44.98
55171;BME280;41060;47.510;8.680;2023-05-25T06:05:55;97238.34;;;15.86;45.79
55171;BME280;41060;47.510;8.680;2023-05-25T06:08:21;97233.81;;;15.68;46.19
55171;BME280;41060;47.510;8.680;2023-05-25T06:10:50;97242.81;;;15.50;46.24
55171;BME280;41060;47.510;8.680;2023-05-25T06:13:16;97238.22;;;15.42;47.43
55171;BME280;41060;47.510;8.680;2023-05-25T06:15:43;97238.88;;;15.44;47.76
55171;BME280;41060;47.510;8.680;2023-05-25T06:18:10;97243.34;;;15.53;46.67
55171;BME280;41060;47.510;8.680;2023-05-25T06:20:36;97247.19;;;15.68;46.29
55171;BME280;41060;47.510;8.680;2023-05-25T06:23:03;97237.19;;;15.70;47.31
55171;BME280;41060;47.510;8.680;2023-05-25T06:25:30;97239.81;;;15.80;46.70
55171;BME280;41060;47.510;8.680;2023-05-25T06:27:58;97244.81;;;15.83;45.38
55171;BME280;41060;47.510;8.680;2023-05-25T06:30:24;97244.75;;;15.93;45.17
55171;BME280;41060;47.510;8.680;2023-05-25T06:32:51;97238.88;;;15.71;46.45
55171;BME280;41060;47.510;8.680;2023-05-25T06:35:18;97247.81;;;15.98;46.08
55171;BME280;41060;47.510;8.680;2023-05-25T06:37:45;97249.13;;;16.11;45.40
55171;BME280;41060;47.510;8.680;2023-05-25T06:40:13;97250.53;;;16.16;44.72
55171;BME280;41060;47.510;8.680;2023-05-25T06:42:39;97255.47;;;16.10;45.23
55171;BME280;41060;47.510;8.680;2023-05-25T06:45:09;97250.09;;;15.93;44.96
55171;BME280;41060;47.510;8.680;2023-05-25T06:47:36;97254.28;;;15.95;46.01
55171;BME280;41060;47.510;8.680;2023-05-25T06:50:04;97259.34;;;15.98;45.86
55171;BME280;41060;47.510;8.680;2023-05-25T06:52:30;97267.91;;;16.02;45.69
55171;BME280;41060;47.510;8.680;2023-05-25T06:54:57;97268.34;;;15.97;45.70
55171;BME280;41060;47.510;8.680;2023-05-25T06:57:24;97264.06;;;16.04;46.30
55171;BME280;41060;47.510;8.680;2023-05-25T06:59:50;97270.41;;;15.86;46.04
55171;BME280;41060;47.510;8.680;2023-05-25T07:02:19;97262.38;;;15.86;46.01
55171;BME280;41060;47.510;8.680;2023-05-25T07:04:46;97271.56;;;16.01;46.62
55171;BME280;41060;47.510;8.680;2023-05-25T07:07:12;97276.63;;;16.22;46.04
55171;BME280;41060;47.510;8.680;2023-05-25T07:09:39;97278.97;;;16.07;46.32
55171;BME280;41060;47.510;8.680;2023-05-25T07:12:06;97282.91;;;16.03;47.30
55171;BME280;41060;47.510;8.680;2023-05-25T07:14:34;97275.41;;;16.16;45.50
55171;BME280;41060;47.510;8.680;2023-05-25T07:17:01;97274.25;;;16.36;45.23
55171;BME280;41060;47.510;8.680;2023-05-25T07:19:31;97023.53;;;14.83;44.32
55171;BME280;41060;47.510;8.680;2023-05-25T07:21:57;97273.69;;;16.50;44.78
55171;BME280;41060;47.510;8.680;2023-05-25T07:24:24;97267.47;;;16.68;45.45
55171;BME280;41060;47.510;8.680;2023-05-25T07:26:54;97268.09;;;16.62;44.31
55171;BME280;41060;47.510;8.680;2023-05-25T07:29:20;97283.88;;;16.73;44.44
55171;BME280;41060;47.510;8.680;2023-05-25T07:31:47;97282.41;;;16.78;45.08
55171;BME280;41060;47.510;8.680;2023-05-25T07:34:14;97280.63;;;16.87;45.19
55171;BME280;41060;47.510;8.680;2023-05-25T07:36:42;97286.63;;;17.07;44.72
55171;BME280;41060;47.510;8.680;2023-05-25T07:39:09;97288.94;;;17.02;45.50
55171;BME280;41060;47.510;8.680;2023-05-25T07:41:35;97292.03;;;17.15;45.47
55171;BME280;41060;47.510;8.680;2023-05-25T07:44:04;97285.84;;;17.14;44.14
55171;BME280;41060;47.510;8.680;2023-05-25T07:46:31;97287.31;;;17.09;44.91
55171;BME280;41060;47.510;8.680;2023-05-25T07:48:57;97291.94;;;17.24;43.80
55171;BME280;41060;47.510;8.680;2023-05-25T07:51:24;97297.50;;;17.39;44.54
55171;BME280;41060;47.510;8.680;2023-05-25T07:53:53;97296.97;;;17.27;45.39
55171;BME280;41060;47.510;8.680;2023-05-25T07:56:20;97297.38;;;17.41;44.22
55171;BME280;41060;47.510;8.680;2023-05-25T07:58:47;97300.59;;;17.52;44.09
55171;BME280;41060;47.510;8.680;2023-05-25T08:01:14;97302.09;;;17.55;43.78
55171;BME280;41060;47.510;8.680;2023-05-25T08:03:41;97300.44;;;17.54;44.94
55171;BME280;41060;47.510;8.680;2023-05-25T08:06:10;97300.81;;;17.67;44.97
55171;BME280;41060;47.510;8.680;2023-05-25T08:08:37;97301.59;;;17.85;44.65
55171;BME280;41060;47.510;8.680;2023-05-25T08:11:05;97308.53;;;17.70;44.53
55171;BME280;41060;47.510;8.680;2023-05-25T08:13:31;97305.09;;;17.52;44.56
55171;BME280;41060;47.510;8.680;2023-05-25T08:15:58;97303.03;;;17.72;44.56
55171;BME280;41060;47.510;8.680;2023-05-25T08:18:25;97304.75;;;17.89;44.17
55171;BME280;41060;47.510;8.680;2023-05-25T08:20:51;97303.66;;;17.74;44.14
55171;BME280;41060;47.510;8.680;2023-05-25T08:23:18;97306.09;;;17.85;43.84
55171;BME280;41060;47.510;8.680;2023-05-25T08:25:46;97308.69;;;18.02;43.22
55171;BME280;41060;47.510;8.680;2023-05-25T08:28:14;97306.28;;;17.91;44.63
55171;BME280;41060;47.510;8.680;2023-05-25T08:30:41;97316.56;;;17.70;44.25
55171;BME280;41060;47.510;8.680;2023-05-25T08:33:09;97315.75;;;17.78;43.48
55171;BME280;41060;47.510;8.680;2023-05-25T08:35:35;97315.66;;;17.87;43.05
55171;BME280;41060;47.510;8.680;2023-05-25T08:38:08;97313.63;;;17.89;42.91
55171;BME280;41060;47.510;8.680;2023-05-25T08:40:35;97316.88;;;17.67;43.57
55171;BME280;41060;47.510;8.680;2023-05-25T08:43:04;97326.94;;;17.65;43.94
55171;BME280;41060;47.510;8.680;2023-05-25T08:45:35;97321.97;;;17.44;44.36
55171;BME280;41060;47.510;8.680;2023-05-25T08:48:03;97319.88;;;17.64;44.17
55171;BME280;41060;47.510;8.680;2023-05-25T08:50:37;97326.38;;;17.95;43.93
55171;BME280;41060;47.510;8.680;2023-05-25T08:53:07;97328.91;;;18.05;44.30
55171;BME280;41060;47.510;8.680;2023-05-25T08:55:37;97344.53;;;18.10;43.78
55171;BME280;41060;47.510;8.680;2023-05-25T08:58:09;97351.75;;;18.25;44.22
55171;BME280;41060;47.510;8.680;2023-05-25T09:00:45;97345.38;;;18.26;44.02
55171;BME280;41060;47.510;8.680;2023-05-25T09:03:15;97352.09;;;18.30;43.57
55171;BME280;41060;47.510;8.680;2023-05-25T09:05:43;97362.09;;;18.12;43.57
55171;BME280;41060;47.510;8.680;2023-05-25T09:08:13;97352.78;;;18.24;42.84
55171;BME280;41060;47.510;8.680;2023-05-25T09:10:41;97362.03;;;18.46;43.02
55171;BME280;41060;47.510;8.680;2023-05-25T09:13:08;97354.00;;;18.54;43.56
55171;BME280;41060;47.510;8.680;2023-05-25T09:15:35;97365.31;;;18.16;43.16
55171;BME280;41060;47.510;8.680;2023-05-25T09:18:03;97360.75;;;18.08;43.01
55171;BME280;41060;47.510;8.680;2023-05-25T09:20:30;97357.47;;;18.30;44.04
55171;BME280;41060;47.510;8.680;2023-05-25T09:22:59;97358.66;;;18.44;43.57
55171;BME280;41060;47.510;8.680;2023-05-25T09:25:27;97364.31;;;18.33;43.38
55171;BME280;41060;47.510;8.680;2023-05-25T09:27:55;97368.03;;;18.40;43.13
55171;BME280;41060;47.510;8.680;2023-05-25T09:30:22;97370.72;;;18.48;44.02
55171;BME280;41060;47.510;8.680;2023-05-25T09:32:49;97385.75;;;18.33;43.78
55171;BME280;41060;47.510;8.680;2023-05-25T09:35:18;97379.75;;;18.31;43.92
55171;BME280;41060;47.510;8.680;2023-05-25T09:37:45;97383.09;;;18.25;44.30
55171;BME280;41060;47.510;8.680;2023-05-25T09:40:13;97387.63;;;18.40;44.24
55171;BME280;41060;47.510;8.680;2023-05-25T09:42:41;97390.25;;;18.16;44.00
55171;BME280;41060;47.510;8.680;2023-05-25T09:45:10;97397.09;;;18.02;44.59
55171;BME280;41060;47.510;8.680;2023-05-25T09:47:39;97401.47;;;18.20;44.60
55171;BME280;41060;47.510;8.680;2023-05-25T09:50:09;97403.38;;;18.35;44.45
55171;BME280;41060;47.510;8.680;2023-05-25T09:52:38;97400.84;;;18.34;44.66
55171;BME280;41060;47.510;8.680;2023-05-25T09:55:08;97404.94;;;18.54;43.49
55171;BME280;41060;47.510;8.680;2023-05-25T09:57:35;97396.22;;;18.60;43.96
55171;BME280;41060;47.510;8.680;2023-05-25T10:00:01;97399.13;;;18.67;44.25
55171;BME280;41060;47.510;8.680;2023-05-25T10:02:29;97402.66;;;18.84;44.14
55171;BME280;41060;47.510;8.680;2023-05-25T10:04:56;97411.19;;;18.87;43.90
55171;BME280;41060;47.510;8.680;2023-05-25T10:07:24;97404.16;;;18.78;43.50
55171;BME280;41060;47.510;8.680;2023-05-25T10:09:53;97415.72;;;18.95;43.31
55171;BME280;41060;47.510;8.680;2023-05-25T10:12:23;97403.47;;;19.00;42.75
55171;BME280;41060;47.510;8.680;2023-05-25T10:14:50;97407.00;;;19.01;43.73
55171;BME280;41060;47.510;8.680;2023-05-25T10:17:20;97405.53;;;18.98;43.37
55171;BME280;41060;47.510;8.680;2023-05-25T10:19:53;97408.69;;;19.26;42.89
55171;BME280;41060;47.510;8.680;2023-05-25T10:22:24;97417.06;;;19.31;43.58
55171;BME280;41060;47.510;8.680;2023-05-25T10:24:56;97413.38;;;19.40;42.86
55171;BME280;41060;47.510;8.680;2023-05-25T10:27:33;97418.41;;;19.51;42.65
55171;BME280;41060;47.510;8.680;2023-05-25T10:30:00;97399.25;;;19.38;42.48
55171;BME280;41060;47.510;8.680;2023-05-25T10:32:27;97423.13;;;19.49;42.12
55171;BME280;41060;47.510;8.680;2023-05-25T10:34:56;97423.28;;;19.40;42.24
55171;BME280;41060;47.510;8.680;2023-05-25T10:37:25;97421.59;;;19.06;43.16
55171;BME280;41060;47.510;8.680;2023-05-25T10:39:52;97414.06;;;19.34;43.02
55171;BME280;41060;47.510;8.680;2023-05-25T10:42:24;97415.38;;;19.38;42.30
55171;BME280;41060;47.510;8.680;2023-05-25T10:44:53;97415.06;;;19.25;43.02
55171;BME280;41060;47.510;8.680;2023-05-25T10:47:23;97412.69;;;19.38;42.14
55171;BME280;41060;47.510;8.680;2023-05-25T10:49:52;97421.75;;;19.62;42.60
55171;BME280;41060;47.510;8.680;2023-05-25T10:52:20;97432.63;;;19.76;41.94
55171;BME280;41060;47.510;8.680;2023-05-25T10:54:47;97424.38;;;19.86;41.95
55171;BME280;41060;47.510;8.680;2023-05-25T10:57:17;97432.41;;;19.94;42.22
55171;BME280;41060;47.510;8.680;2023-05-25T10:59:50;97399.22;;;19.79;42.45
55171;BME280;41060;47.510;8.680;2023-05-25T11:02:19;97431.22;;;19.96;41.91
55171;BME280;41060;47.510;8.680;2023-05-25T11:05:29;97429.25;;;19.82;41.72
55171;BME280;41060;47.510;8.680;2023-05-25T11:07:56;97437.16;;;19.76;42.21
55171;BME280;41060;47.510;8.680;2023-05-25T11:10:51;97437.09;;;20.00;42.23
55171;BME280;41060;47.510;8.680;2023-05-25T11:13:22;97446.16;;;20.07;41.45
55171;BME280;41060;47.510;8.680;2023-05-25T11:16:12;97443.06;;;20.18;42.07
55171;BME280;41060;47.510;8.680;2023-05-25T11:18:40;97441.09;;;20.04;42.47
55171;BME280;41060;47.510;8.680;2023-05-25T11:21:12;97441.63;;;20.00;42.47
55171;BME280;41060;47.510;8.680;2023-05-25T11:23:51;97438.69;;;20.25;41.64
55171;BME280;41060;47.510;8.680;2023-05-25T11:26:19;97432.06;;;20.44;41.10
55171;BME280;41060;47.510;8.680;2023-05-25T11:28:47;97437.06;;;20.78;41.69
55171;BME280;41060;47.510;8.680;2023-05-25T11:31:15;97425.28;;;20.79;42.28
55171;BME280;41060;47.510;8.680;2023-05-25T11:33:43;97431.03;;;20.76;41.94
55171;BME280;41060;47.510;8.680;2023-05-25T11:36:09;97434.41;;;20.70;41.67
55171;BME280;41060;47.510;8.680;2023-05-25T11:38:40;97436.59;;;21.05;42.17
55171;BME280;41060;47.510;8.680;2023-05-25T11:41:19;97429.81;;;21.09;39.77
55171;BME280;41060;47.510;8.680;2023-05-25T11:43:46;97426.00;;;21.04;41.23
55171;BME280;41060;47.510;8.680;2023-05-25T11:46:16;97428.31;;;21.07;41.24
55171;BME280;41060;47.510;8.680;2023-05-25T11:48:44;97394.19;;;20.99;40.49
55171;BME280;41060;47.510;8.680;2023-05-25T11:51:15;97427.25;;;20.85;41.04
55171;BME280;41060;47.510;8.680;2023-05-25T11:53:42;97431.41;;;21.19;40.45
55171;BME280;41060;47.510;8.680;2023-05-25T11:56:10;97424.53;;;21.16;39.95
55171;BME280;41060;47.510;8.680;2023-05-25T11:58:41;97400.41;;;21.23;40.03
55171;BME280;41060;47.510;8.680;2023-05-25T12:01:13;97433.06;;;21.42;40.33
55171;BME280;41060;47.510;8.680;2023-05-25T12:03:41;97393.13;;;21.46;39.55
55171;BME280;41060;47.510;8.680;2023-05-25T12:06:08;97426.53;;;21.89;40.11
55171;BME280;41060;47.510;8.680;2023-05-25T12:08:36;97421.16;;;21.89;38.66
55171;BME280;41060;47.510;8.680;2023-05-25T12:11:03;97420.53;;;22.02;38.57
55171;BME280;41060;47.510;8.680;2023-05-25T12:13:30;97421.72;;;21.99;38.87
55171;BME280;41060;47.510;8.680;2023-05-25T12:15:59;97417.06;;;22.08;39.17
55171;BME280;41060;47.510;8.680;2023-05-25T12:18:27;97414.09;;;22.03;38.66
55171;BME280;41060;47.510;8.680;2023-05-25T12:20:55;97414.09;;;21.88;39.42
55171;BME280;41060;47.510;8.680;2023-05-25T12:23:22;97398.47;;;21.83;39.15
55171;BME280;41060;47.510;8.680;2023-05-25T12:26:05;97412.78;;;22.13;39.46
55171;BME280;41060;47.510;8.680;2023-05-25T12:28:34;97418.91;;;22.22;38.85
55171;BME280;41060;47.510;8.680;2023-05-25T12:31:19;97411.28;;;22.40;38.30
55171;BME280;41060;47.510;8.680;2023-05-25T12:34:02;97419.91;;;22.50;38.05
55171;BME280;41060;47.510;8.680;2023-05-25T12:36:41;97406.16;;;22.31;38.82
55171;BME280;41060;47.510;8.680;2023-05-25T12:39:09;97413.16;;;22.76;39.22
55171;BME280;41060;47.510;8.680;2023-05-25T12:41:48;97415.47;;;23.00;38.48
55171;BME280;41060;47.510;8.680;2023-05-25T12:44:16;97416.84;;;23.11;38.25
55171;BME280;41060;47.510;8.680;2023-05-25T12:46:43;97413.09;;;22.90;37.47
55171;BME280;41060;47.510;8.680;2023-05-25T12:49:24;97417.56;;;23.19;36.84
55171;BME280;41060;47.510;8.680;2023-05-25T12:51:52;97411.53;;;23.73;37.12
55171;BME280;41060;47.510;8.680;2023-05-25T12:54:39;97408.94;;;23.86;36.24
55171;BME280;41060;47.510;8.680;2023-05-25T12:57:12;97412.13;;;23.40;36.40
55171;BME280;41060;47.510;8.680;2023-05-25T12:59:40;97412.78;;;23.43;36.59
55171;BME280;41060;47.510;8.680;2023-05-25T13:02:08;97412.06;;;23.62;36.38
55171;BME280;41060;47.510;8.680;2023-05-25T13:04:36;97423.16;;;23.73;35.89
55171;BME280;41060;47.510;8.680;2023-05-25T13:07:08;97415.94;;;23.53;36.79